Time;durP1;ratioP1;P1;durP2;ratioP2;P2;SDS_P1;SDS_P2;PMS_P1;PMS_P2;Temp;Humidity;BMP_temperature;BMP_pressure;BME280_temperature;BME280_humidity;BME280_pressure;Samples;Min_cycle;Max_cycle;Signal;HPM_P1;HPM_P2
2022/07/04 00:00:49;;;;;;;5.40;4.00;;;;;;100673.07;;;;104421;1316;35013;-37
2022/07/04 00:03:21;;;;;;;5.80;4.30;;;;;;100673.40;;;;104422;1315;36059;-38
2022/07/04 00:05:53;;;;;;;5.90;4.10;;;;;;100673.52;;;;104422;1315;34495;-38
2022/07/04 00:08:26;;;;;;;5.80;4.00;;;;;;100675.12;;;;104434;1316;34140;-38
2022/07/04 00:10:59;;;;;;;6.40;3.90;;;;;;100673.96;;;;104412;1316;35517;-38
2022/07/04 00:13:31;;;;;;;5.50;4.30;;;;;;100669.80;;;;104439;1315;35671;-38
2022/07/04 00:16:05;;;;;;;5.30;4.30;;;;;;100668.16;;;;104445;1312;36056;-38
2022/07/04 00:18:39;;;;;;;5.50;4.20;;;;;;100669.11;;;;104460;1312;35621;-38
2022/07/04 00:21:11;;;;;;;5.30;4.20;;;;;;100672.87;;;;104422;1313;34667;-38
2022/07/04 00:23:43;;;;;;;5.60;3.70;;;;;;100666.30;;;;104435;1312;35899;-38
2022/07/04 00:26:16;;;;;;;5.90;4.20;;;;;;100664.70;;;;104412;1312;33597;-38
2022/07/04 00:28:49;;;;;;;5.90;4.30;;;;;;100662.12;;;;104434;1311;33714;-38
2022/07/04 00:31:21;;;;;;;6.30;4.40;;;;;;100657.63;;;;104441;1313;35236;-38
2022/07/04 00:33:53;;;;;;;6.90;4.20;;;;;;100652.80;;;;104421;1314;34210;-38
2022/07/04 00:36:26;;;;;;;5.30;4.50;;;;;;100649.59;;;;104447;1315;34085;-38
2022/07/04 00:38:58;;;;;;;6.10;4.30;;;;;;100643.88;;;;104437;1313;33650;-37
2022/07/04 00:41:31;;;;;;;6.20;4.00;;;;;;100648.05;;;;104411;1312;34123;-38
2022/07/04 00:44:09;;;;;;;5.20;4.30;;;;;;100650.27;;;;104442;1316;35445;-35
2022/07/04 00:46:43;;;;;;;6.00;4.40;;;;;;100645.05;;;;104446;1314;33522;-35
2022/07/04 00:49:18;;;;;;;5.30;4.20;;;;;;100642.62;;;;104428;1316;33640;-35
2022/07/04 00:51:51;;;;;;;6.10;4.20;;;;;;100636.89;;;;104435;1313;34671;-35
2022/07/04 00:54:27;;;;;;;5.10;4.20;;;;;;100640.05;;;;104462;1310;35944;-35
2022/07/04 00:57:01;;;;;;;6.10;4.50;;;;;;100637.16;;;;104450;1316;33595;-35
2022/07/04 00:59:34;;;;;;;5.70;4.40;;;;;;100634.89;;;;104438;1310;34408;-35
2022/07/04 01:02:07;;;;;;;6.10;4.00;;;;;;100631.92;;;;104408;1313;35346;-35
2022/07/04 01:04:40;;;;;;;5.60;4.20;;;;;;100632.64;;;;104415;1316;34356;-35
2022/07/04 01:07:13;;;;;;;5.90;4.30;;;;;;100631.39;;;;104435;1316;34229;-35
2022/07/04 01:09:46;;;;;;;4.90;4.20;;;;;;100632.20;;;;104426;1312;33789;-35
2022/07/04 01:12:30;;;;;;;6.20;4.50;;;;;;100632.84;;;;104432;1314;35888;-35
2022/07/04 01:15:05;;;;;;;5.00;3.70;;;;;;100630.21;;;;104460;1315;35477;-36
2022/07/04 01:17:38;;;;;;;6.60;4.30;;;;;;100629.45;;;;104457;1315;34734;-35
2022/07/04 01:20:17;;;;;;;6.00;4.50;;;;;;100624.39;;;;104432;1311;35159;-35
2022/07/04 01:22:49;;;;;;;5.10;4.00;;;;;;100624.33;;;;104418;1316;33961;-35
2022/07/04 01:25:23;;;;;;;5.60;4.30;;;;;;100624.74;;;;104428;1316;35791;-35
2022/07/04 01:27:55;;;;;;;5.60;4.10;;;;;;100624.95;;;;104446;1315;34487;-35
2022/07/04 01:30:28;;;;;;;5.80;4.30;;;;;;100623.16;;;;104453;1315;34521;-35
2022/07/04 01:33:00;;;;;;;6.00;4.40;;;;;;100625.54;;;;104427;1312;35327;-36
2022/07/04 01:35:33;;;;;;;6.50;4.80;;;;;;100627.02;;;;104458;1314;35753;-35
2022/07/04 01:38:06;;;;;;;6.60;4.70;;;;;;100626.64;;;;104456;1312;34188;-35
2022/07/04 01:40:39;;;;;;;5.70;4.30;;;;;;100629.22;;;;104463;1316;34540;-35
2022/07/04 01:43:11;;;;;;;5.90;4.60;;;;;;100629.13;;;;104459;1315;34887;-35
2022/07/04 01:45:46;;;;;;;5.60;4.40;;;;;;100635.93;;;;104443;1314;35079;-36
2022/07/04 01:48:18;;;;;;;6.00;4.50;;;;;;100634.11;;;;104426;1316;35629;-35
2022/07/04 01:50:50;;;;;;;7.10;4.70;;;;;;100635.13;;;;104437;1312;35310;-35
2022/07/04 01:53:23;;;;;;;5.60;3.90;;;;;;100635.83;;;;104431;1316;35643;-35
2022/07/04 01:55:55;;;;;;;5.40;4.50;;;;;;100635.42;;;;104423;1314;34165;-35
2022/07/04 01:58:27;;;;;;;6.80;4.90;;;;;;100634.63;;;;104401;1315;35546;-37
2022/07/04 02:03:51;;;;;;;5.50;4.40;;;;;;100631.45;;;;104332;1310;34311;-38
2022/07/04 02:06:23;;;;;;;5.20;4.40;;;;;;100635.48;;;;104415;1315;35007;-38
2022/07/04 02:14:40;;;;;;;5.50;4.60;;;;;;100636.80;;;;104418;1312;34276;-37
2022/07/04 02:17:12;;;;;;;5.30;4.50;;;;;;100636.44;;;;104414;1316;35441;-38
2022/07/04 02:19:44;;;;;;;5.50;4.90;;;;;;100635.92;;;;104397;1316;35639;-37
2022/07/04 02:22:17;;;;;;;5.60;4.70;;;;;;100630.80;;;;104427;1315;35566;-38
2022/07/04 02:24:49;;;;;;;6.10;4.80;;;;;;100631.36;;;;104410;1315;35861;-38
2022/07/04 02:27:22;;;;;;;6.00;5.00;;;;;;100633.13;;;;104434;1314;35938;-37
2022/07/04 02:29:54;;;;;;;5.70;4.80;;;;;;100636.02;;;;104434;1311;33676;-38
2022/07/04 02:32:27;;;;;;;6.80;5.20;;;;;;100639.75;;;;104444;1316;35224;-38
2022/07/04 02:34:59;;;;;;;7.50;4.90;;;;;;100637.02;;;;104431;1316;35426;-37
2022/07/04 02:37:32;;;;;;;5.60;4.80;;;;;;100634.95;;;;104423;1315;35822;-38
2022/07/04 02:40:08;;;;;;;6.50;4.70;;;;;;100631.66;;;;104415;1316;33974;-38
2022/07/04 02:42:41;;;;;;;6.70;4.90;;;;;;100626.89;;;;104438;1315;33579;-38
2022/07/04 02:45:14;;;;;;;5.70;4.50;;;;;;100626.89;;;;104458;1315;34294;-37
2022/07/04 02:47:46;;;;;;;6.60;4.90;;;;;;100627.84;;;;104436;1311;35662;-37
2022/07/04 02:50:19;;;;;;;5.90;4.80;;;;;;100627.86;;;;104456;1312;35663;-35
2022/07/04 02:52:51;;;;;;;5.90;4.60;;;;;;100630.80;;;;104446;1315;33718;-36
2022/07/04 02:55:24;;;;;;;6.10;4.70;;;;;;100630.20;;;;104413;1313;35375;-35
2022/07/04 02:57:56;;;;;;;6.10;5.10;;;;;;100631.38;;;;104446;1315;34459;-35
2022/07/04 03:00:29;;;;;;;6.10;4.60;;;;;;100629.92;;;;104420;1316;35539;-35
2022/07/04 03:03:04;;;;;;;6.50;4.90;;;;;;100629.56;;;;104473;1313;34009;-35
2022/07/04 03:05:37;;;;;;;7.50;4.70;;;;;;100633.25;;;;104435;1312;34641;-36
2022/07/04 03:08:10;;;;;;;6.80;4.80;;;;;;100638.30;;;;104457;1316;35383;-36
2022/07/04 03:10:42;;;;;;;6.60;5.00;;;;;;100638.29;;;;104433;1312;33735;-36
2022/07/04 03:13:14;;;;;;;6.50;5.00;;;;;;100639.64;;;;104420;1316;33519;-36
2022/07/04 03:15:46;;;;;;;6.80;4.70;;;;;;100642.36;;;;104430;1315;33980;-36
2022/07/04 03:18:19;;;;;;;6.90;5.20;;;;;;100646.81;;;;104453;1314;33670;-36
2022/07/04 03:20:52;;;;;;;6.10;5.00;;;;;;100647.98;;;;104455;1312;33621;-36
2022/07/04 03:23:25;;;;;;;6.00;5.00;;;;;;100652.88;;;;104442;1314;35217;-36
2022/07/04 03:25:58;;;;;;;5.80;4.90;;;;;;100652.06;;;;104408;1316;34513;-36
2022/07/04 03:28:29;;;;;;;;;;;;;;100649.71;;;;104442;1315;36171;-36
2022/07/04 03:31:01;;;;;;;6.30;5.30;;;;;;100652.46;;;;104451;1312;35456;-35
2022/07/04 03:33:33;;;;;;;7.00;5.00;;;;;;100650.48;;;;104454;1315;35378;-35
2022/07/04 03:36:06;;;;;;;5.80;5.10;;;;;;100650.06;;;;104416;1315;35758;-36
2022/07/04 03:38:39;;;;;;;6.80;4.90;;;;;;100649.98;;;;104406;1314;35940;-36
2022/07/04 03:41:11;;;;;;;6.00;5.30;;;;;;100655.56;;;;104441;1315;33595;-36
2022/07/04 03:43:44;;;;;;;6.60;5.50;;;;;;100654.27;;;;104437;1315;35073;-36
2022/07/04 03:46:16;;;;;;;6.00;4.70;;;;;;100653.91;;;;104420;1315;36623;-36
2022/07/04 03:48:49;;;;;;;6.40;5.30;;;;;;100654.04;;;;104426;1316;33683;-36
2022/07/04 03:51:22;;;;;;;6.40;5.50;;;;;;100654.59;;;;104447;1307;34600;-35
2022/07/04 03:53:55;;;;;;;5.90;5.30;;;;;;100658.39;;;;104435;1312;35153;-36
2022/07/04 03:56:27;;;;;;;5.70;5.00;;;;;;100657.98;;;;104480;1312;34777;-36
2022/07/04 03:59:00;;;;;;;6.00;5.40;;;;;;100661.60;;;;104424;1312;35355;-36
2022/07/04 04:01:33;;;;;;;6.30;5.30;;;;;;100660.54;;;;104416;1314;35297;-36
2022/07/04 04:06:55;;;;;;;7.00;5.20;;;;;;100654.20;;;;104417;1314;34607;-36
2022/07/04 04:09:27;;;;;;;5.90;5.30;;;;;;100653.20;;;;104424;1316;33543;-36
2022/07/04 04:11:59;;;;;;;7.20;5.30;;;;;;100649.63;;;;104425;1316;35933;-36
2022/07/04 04:14:34;;;;;;;6.30;5.40;;;;;;100651.35;;;;104439;1315;34416;-36
2022/07/04 04:17:07;;;;;;;6.10;5.50;;;;;;100650.80;;;;104388;1315;35802;-36
2022/07/04 04:19:39;;;;;;;6.90;5.30;;;;;;100647.59;;;;104422;1311;34053;-36
2022/07/04 04:22:11;;;;;;;6.90;5.30;;;;;;100640.49;;;;104411;1316;33984;-36
2022/07/04 04:24:44;;;;;;;7.10;5.60;;;;;;100637.05;;;;104423;1315;35644;-35
2022/07/04 04:27:16;;;;;;;6.10;5.50;;;;;;100635.70;;;;104428;1313;34168;-36
2022/07/04 04:29:48;;;;;;;6.00;5.20;;;;;;100635.27;;;;103993;1307;601810;-36
2022/07/04 04:32:21;;;;;;;6.40;5.30;;;;;;100636.58;;;;104462;1314;35536;-36
2022/07/04 04:34:53;;;;;;;;;;;;;;100637.35;;;;104423;1312;34531;-36
2022/07/04 04:37:28;;;;;;;6.50;5.80;;;;;;100638.70;;;;104416;1314;34791;-36
2022/07/04 04:40:00;;;;;;;6.40;5.70;;;;;;100637.94;;;;104432;1309;33617;-36
2022/07/04 04:42:33;;;;;;;7.10;6.00;;;;;;100637.70;;;;104424;1315;34166;-36
2022/07/04 04:45:07;;;;;;;6.70;5.70;;;;;;100639.16;;;;104451;1314;35194;-36
2022/07/04 04:47:40;;;;;;;7.20;6.40;;;;;;100640.02;;;;104444;1315;33682;-35
2022/07/04 04:50:14;;;;;;;7.80;6.40;;;;;;100640.54;;;;104446;1316;35429;-35
2022/07/04 04:52:47;;;;;;;7.90;7.00;;;;;;100640.20;;;;104456;1312;34852;-35
2022/07/04 04:55:19;;;;;;;6.70;6.00;;;;;;100640.90;;;;104422;1315;34036;-36
2022/07/04 04:57:51;;;;;;;6.50;5.60;;;;;;100628.73;;;;104432;1316;36162;-35
2022/07/04 05:00:24;;;;;;;7.20;6.00;;;;;;100624.52;;;;104430;1312;34079;-35
2022/07/04 05:02:57;;;;;;;6.50;5.70;;;;;;100628.19;;;;104450;1310;33823;-36
2022/07/04 05:05:29;;;;;;;7.40;6.30;;;;;;100632.65;;;;104442;1310;34406;-35
2022/07/04 05:08:02;;;;;;;8.30;6.80;;;;;;100633.35;;;;104423;1314;34710;-36
2022/07/04 05:10:35;;;;;;;9.30;6.50;;;;;;100636.02;;;;104443;1315;34269;-36
2022/07/04 05:13:08;;;;;;;7.80;6.10;;;;;;100640.73;;;;104392;1312;34493;-35
2022/07/04 05:15:40;;;;;;;7.90;6.30;;;;;;100638.90;;;;104444;1316;34996;-36
2022/07/04 05:18:13;;;;;;;6.80;6.10;;;;;;100637.54;;;;104440;1315;35995;-35
2022/07/04 05:20:46;;;;;;;7.20;5.60;;;;;;100633.93;;;;104413;1316;35609;-36
2022/07/04 05:23:18;;;;;;;6.90;5.70;;;;;;100632.95;;;;104395;1312;35199;-36
2022/07/04 05:25:50;;;;;;;7.80;6.90;;;;;;100637.39;;;;104411;1312;35363;-36
2022/07/04 05:28:23;;;;;;;6.70;5.90;;;;;;100636.05;;;;104418;1310;35306;-36
2022/07/04 05:30:55;;;;;;;7.10;6.00;;;;;;100638.45;;;;104427;1312;35403;-35
2022/07/04 05:33:28;;;;;;;6.90;6.00;;;;;;100639.71;;;;104438;1312;35032;-35
2022/07/04 05:36:00;;;;;;;6.90;6.10;;;;;;100645.03;;;;104446;1312;35163;-35
2022/07/04 05:38:33;;;;;;;8.40;7.50;;;;;;100647.25;;;;104431;1316;35587;-36
2022/07/04 05:41:08;;;;;;;9.30;7.80;;;;;;100651.55;;;;104429;1311;33565;-36
2022/07/04 05:43:41;;;;;;;8.90;8.00;;;;;;100648.55;;;;104432;1312;34563;-35
2022/07/04 05:46:13;;;;;;;8.60;7.70;;;;;;100649.86;;;;104411;1316;36057;-36
2022/07/04 05:48:45;;;;;;;10.10;7.90;;;;;;100650.44;;;;104440;1315;34163;-36
2022/07/04 05:51:18;;;;;;;9.10;7.70;;;;;;100649.55;;;;104421;1316;33866;-35
2022/07/04 05:53:50;;;;;;;10.80;7.40;;;;;;100650.41;;;;104413;1314;33930;-35
2022/07/04 05:56:23;;;;;;;10.20;7.40;;;;;;100648.76;;;;104409;1308;33067;-36
2022/07/04 05:58:55;;;;;;;8.40;7.10;;;;;;100649.64;;;;104434;1312;35262;-35
2022/07/04 06:01:28;;;;;;;8.40;7.50;;;;;;100648.96;;;;104419;1316;35124;-35
2022/07/04 06:04:00;;;;;;;8.10;7.00;;;;;;100651.37;;;;104432;1315;33841;-36
2022/07/04 06:06:33;;;;;;;7.90;7.10;;;;;;100651.22;;;;104454;1315;34907;-35
2022/07/04 06:09:06;;;;;;;8.70;7.90;;;;;;100646.66;;;;104464;1315;35465;-36
2022/07/04 06:11:38;;;;;;;8.20;7.40;;;;;;100649.95;;;;104437;1316;33714;-35
2022/07/04 06:14:11;;;;;;;9.20;7.60;;;;;;100649.66;;;;104448;1316;35088;-36
2022/07/04 06:16:43;;;;;;;8.20;7.30;;;;;;100648.87;;;;104429;1316;34738;-36
2022/07/04 06:19:16;;;;;;;8.00;6.80;;;;;;100648.04;;;;104418;1308;35462;-36
2022/07/04 06:21:49;;;;;;;8.90;6.80;;;;;;100641.48;;;;104416;1314;34674;-36
2022/07/04 06:24:21;;;;;;;8.20;6.60;;;;;;100638.74;;;;104439;1315;35766;-36
2022/07/04 06:26:54;;;;;;;8.60;7.10;;;;;;100636.63;;;;104421;1315;35473;-35
2022/07/04 06:29:26;;;;;;;8.30;6.90;;;;;;100630.95;;;;104422;1312;34720;-35
2022/07/04 06:31:59;;;;;;;6.40;5.80;;;;;;100628.31;;;;104422;1315;34103;-36
2022/07/04 06:37:22;;;;;;;7.70;6.50;;;;;;100620.61;;;;104435;1312;34546;-36
2022/07/04 06:39:54;;;;;;;8.00;6.30;;;;;;100618.58;;;;104437;1315;34034;-36
2022/07/04 06:42:27;;;;;;;8.00;6.40;;;;;;100611.31;;;;104445;1316;35851;-36
2022/07/04 06:44:59;;;;;;;6.70;6.00;;;;;;100606.56;;;;104440;1312;34179;-36
2022/07/04 06:47:32;;;;;;;6.90;5.80;;;;;;100604.91;;;;104406;1312;35982;-36
2022/07/04 06:50:07;;;;;;;6.30;5.20;;;;;;100601.77;;;;104396;1316;35470;-36
2022/07/04 06:52:40;;;;;;;6.90;5.90;;;;;;100604.38;;;;104433;1312;34050;-36
2022/07/04 06:55:12;;;;;;;6.00;5.40;;;;;;100606.47;;;;104431;1308;35295;-35
2022/07/04 06:57:45;;;;;;;6.90;5.10;;;;;;100605.59;;;;104452;1316;33845;-36
2022/07/04 07:00:18;;;;;;;5.80;5.20;;;;;;100608.52;;;;104427;1315;34062;-36
2022/07/04 07:02:51;;;;;;;6.50;5.20;;;;;;100610.72;;;;104437;1312;35838;-36
2022/07/04 07:05:23;;;;;;;7.40;5.70;;;;;;100609.25;;;;104433;1312;33745;-36
2022/07/04 07:07:56;;;;;;;7.30;5.60;;;;;;100607.22;;;;104437;1312;35761;-36
2022/07/04 07:10:28;;;;;;;5.70;5.00;;;;;;100609.23;;;;104446;1312;35934;-35
2022/07/04 07:13:01;;;;;;;6.50;5.20;;;;;;100606.39;;;;104427;1316;35453;-36
2022/07/04 07:15:35;;;;;;;6.70;5.00;;;;;;100605.88;;;;104433;1312;35218;-36
2022/07/04 07:18:08;;;;;;;6.80;5.20;;;;;;100606.55;;;;104449;1310;35066;-36
2022/07/04 07:20:42;;;;;;;6.40;5.10;;;;;;100605.11;;;;104412;1312;34550;-35
2022/07/04 07:23:15;;;;;;;7.30;5.20;;;;;;100606.58;;;;104426;1313;35357;-36
2022/07/04 07:25:46;;;;;;;;;;;;;;100609.87;;;;104583;1302;35911;-40
2022/07/04 07:28:19;;;;;;;7.70;5.20;;;;;;100605.06;;;;104421;1316;35950;-39
2022/07/04 07:30:51;;;;;;;6.90;4.90;;;;;;100601.05;;;;104400;1316;35290;-42
2022/07/04 07:33:26;;;;;;;6.80;4.60;;;;;;100600.08;;;;104444;1311;35172;-43
2022/07/04 07:36:03;;;;;;;7.50;5.10;;;;;;100601.30;;;;104424;1314;35511;-39
2022/07/04 07:38:36;;;;;;;7.50;4.90;;;;;;100603.83;;;;104404;1316;35999;-38
2022/07/04 07:41:15;;;;;;;7.20;4.90;;;;;;100607.95;;;;104487;1314;35541;-38
2022/07/04 07:43:50;;;;;;;6.60;5.10;;;;;;100605.60;;;;104414;1307;33713;-38
2022/07/04 07:46:26;;;;;;;6.10;5.20;;;;;;100601.55;;;;104468;1307;35210;-39
2022/07/04 07:49:02;;;;;;;8.10;5.10;;;;;;100599.42;;;;104436;1316;34050;-38
2022/07/04 07:51:35;;;;;;;8.40;5.30;;;;;;100604.42;;;;104397;1314;34662;-38
2022/07/04 07:54:09;;;;;;;7.40;5.20;;;;;;100604.46;;;;104456;1316;35373;-35
2022/07/04 07:56:46;;;;;;;8.70;5.10;;;;;;100603.62;;;;104472;1311;34372;-35
2022/07/04 07:59:19;;;;;;;8.60;5.10;;;;;;100603.28;;;;104524;1315;33650;-36
2022/07/04 08:01:55;;;;;;;9.10;5.60;;;;;;100604.23;;;;104460;1312;35125;-38
2022/07/04 08:04:38;;;;;;;8.10;4.90;;;;;;100608.00;;;;104480;1307;34572;-37
2022/07/04 08:07:14;;;;;;;7.20;5.10;;;;;;100607.69;;;;104434;1307;35306;-35
2022/07/04 08:09:50;;;;;;;6.00;4.70;;;;;;100599.08;;;;104473;1312;35070;-35
2022/07/04 08:12:25;;;;;;;7.10;4.90;;;;;;100599.70;;;;104430;1311;33758;-35
2022/07/04 08:14:58;;;;;;;5.70;4.30;;;;;;100595.92;;;;104469;1311;35227;-35
2022/07/04 08:17:34;;;;;;;6.00;4.20;;;;;;100597.81;;;;104438;1312;35252;-36
2022/07/04 08:20:08;;;;;;;5.70;4.00;;;;;;100599.70;;;;104483;1316;36787;-37
2022/07/04 08:22:40;;;;;;;6.50;4.10;;;;;;100596.66;;;;104538;1308;35388;-38
2022/07/04 08:25:15;;;;;;;5.50;3.80;;;;;;100600.02;;;;104531;1316;34863;-38
2022/07/04 08:27:47;;;;;;;7.10;4.60;;;;;;100595.64;;;;104511;1315;36092;-38
2022/07/04 08:30:19;;;;;;;6.00;4.10;;;;;;100592.91;;;;104608;1311;33907;-38
2022/07/04 08:32:52;;;;;;;6.80;4.10;;;;;;100589.91;;;;104631;1308;35334;-38
2022/07/04 08:35:24;;;;;;;5.60;4.00;;;;;;100587.50;;;;104620;1312;35551;-38
2022/07/04 08:37:59;;;;;;;6.20;3.90;;;;;;100590.00;;;;104530;1314;35957;-36
2022/07/04 08:40:33;;;;;;;5.70;3.80;;;;;;100590.96;;;;104471;1307;35517;-37
2022/07/04 08:43:06;;;;;;;4.50;3.50;;;;;;100595.23;;;;104445;1307;33627;-33
2022/07/04 08:45:37;;;;;;;;;;;;;;100592.02;;;;104456;1316;36039;-33
2022/07/04 08:48:15;;;;;;;5.50;3.70;;;;;;100590.79;;;;104417;1315;34695;-35
2022/07/04 08:50:55;;;;;;;4.90;3.70;;;;;;100583.54;;;;104433;1311;34199;-33
2022/07/04 08:53:32;;;;;;;5.30;3.70;;;;;;100589.61;;;;104487;1311;35198;-37
2022/07/04 08:58:57;;;;;;;5.50;3.50;;;;;;100592.74;;;;104494;1310;34337;-38
2022/07/04 09:01:34;;;;;;;5.30;3.90;;;;;;100588.73;;;;104458;1312;33629;-36
2022/07/04 09:04:11;;;;;;;5.30;3.50;;;;;;100585.59;;;;104308;1316;36435;-36
2022/07/04 09:06:45;;;;;;;5.00;3.50;;;;;;100583.34;;;;104514;1308;35188;-36
2022/07/04 09:09:20;;;;;;;5.90;3.40;;;;;;100580.61;;;;104472;1307;34565;-34
2022/07/04 09:11:52;;;;;;;4.70;3.20;;;;;;100580.33;;;;104377;1316;35911;-34
2022/07/04 09:14:27;;;;;;;4.70;3.30;;;;;;100587.60;;;;104473;1311;33523;-36
2022/07/04 09:17:01;;;;;;;4.80;3.50;;;;;;100590.58;;;;104491;1310;35205;-35
2022/07/04 09:19:34;;;;;;;5.30;3.30;;;;;;100587.20;;;;104480;1313;34108;-37
2022/07/04 09:22:11;;;;;;;4.30;3.00;;;;;;100588.87;;;;104513;1314;35770;-36
2022/07/04 09:24:55;;;;;;;5.50;3.40;;;;;;100595.83;;;;104461;1314;35195;-36
2022/07/04 09:27:40;;;;;;;5.00;3.40;;;;;;100600.38;;;;104548;1314;36022;-37
2022/07/04 09:30:16;;;;;;;4.50;3.30;;;;;;100611.83;;;;104258;1314;35770;-38
2022/07/04 09:32:53;;;;;;;4.20;3.10;;;;;;100614.73;;;;104120;1318;33561;-37
2022/07/04 09:37:45;;;;;;;4.70;3.40;;;;;;;;;;104262;1300;592751;-41
2022/07/04 09:40:29;;;;;;;4.40;3.20;;;;;;;;;;107519;1269;35528;-39
2022/07/04 09:43:11;;;;;;;4.60;3.20;;;;;;;;;;107297;1270;39161;-41
2022/07/04 09:45:58;;;;;;;4.40;2.90;;;;;;;;;;107227;1270;34345;-40
2022/07/04 09:48:50;;;;;;;4.30;3.20;;;;;;;;;;107628;1268;35630;-39
2022/07/04 09:51:46;;;;;;;4.40;3.10;;;;;;;;;;107436;1266;218239;-43
2022/07/04 09:54:31;;;;;;;4.50;3.00;;;;;;;;;;107556;1266;35248;-38
2022/07/04 09:57:06;;;;;;;4.30;3.00;;;;;;;;;;107544;1266;32638;-37
2022/07/04 09:59:40;;;;;;;4.40;3.00;;;;;;;;;;107793;1267;35666;-37
2022/07/04 10:02:14;;;;;;;5.00;3.30;;;;;;;;;;107700;1267;34233;-37
2022/07/04 10:04:54;;;;;;;4.70;3.00;;;;;;;;;;108318;1259;34271;-37
2022/07/04 10:07:43;;;;;;;4.30;3.00;;;;;;;;;;108322;1259;35639;-42
2022/07/04 10:10:34;;;;;;;5.30;3.30;;;;;;;;;;108330;1259;35160;-40
2022/07/04 10:13:10;;;;;;;4.30;3.00;;;;;;;;;;108329;1259;35514;-37
2022/07/04 10:15:46;;;;;;;6.10;3.10;;;;;;;;;;108308;1259;34389;-38
2022/07/04 10:18:21;;;;;;;5.10;3.00;;;;;;;;;;108287;1260;33821;-37
2022/07/04 10:20:56;;;;;;;4.10;3.20;;;;;;;;;;108302;1260;35574;-38
2022/07/04 10:23:33;;;;;;;5.40;3.20;;;;;;;;;;108275;1257;34671;-38
2022/07/04 10:26:08;;;;;;;4.50;3.10;;;;;;;;;;108295;1257;34371;-38
2022/07/04 10:28:42;;;;;;;4.10;2.90;;;;;;;;;;108323;1258;35654;-37
2022/07/04 10:31:16;;;;;;;3.90;2.70;;;;;;;;;;108330;1258;33606;-37
2022/07/04 10:33:54;;;;;;;4.00;2.80;;;;;;;;;;108355;1258;34762;-37
2022/07/04 10:36:29;;;;;;;4.50;3.20;;;;;;;;;;108404;1258;33874;-37
2022/07/04 10:39:05;;;;;;;4.50;2.80;;;;;;;;;;108411;1258;33834;-38
2022/07/04 10:42:01;;;;;;;4.90;2.90;;;;;;;;;;108386;1258;34180;-37
2022/07/04 10:44:37;;;;;;;3.90;2.90;;;;;;;;;;108350;1258;33916;-37
2022/07/04 10:47:26;;;;;;;3.90;3.00;;;;;;;;;;108327;1258;35372;-37
2022/07/04 10:49:59;;;;;;;5.10;3.00;;;;;;;;;;108321;1258;33601;-37
2022/07/04 10:52:32;;;;;;;4.00;2.90;;;;;;;;;;108318;1258;34213;-38
2022/07/04 10:55:13;;;;;;;3.60;2.60;;;;;;;;;;108233;1258;36785;-41
2022/07/04 10:57:46;;;;;;;3.70;2.70;;;;;;;;;;108247;1258;35779;-36
2022/07/04 11:00:22;;;;;;;4.60;2.80;;;;;;;;;;108195;1258;35596;-36
2022/07/04 11:03:16;;;;;;;4.20;3.00;;;;;;;;;;108199;1259;33874;-38
2022/07/04 11:05:51;;;;;;;4.70;3.10;;;;;;;;;;108229;1259;33274;-38
2022/07/04 11:08:24;;;;;;;3.80;2.60;;;;;;;;;;108242;1259;34211;-38
2022/07/04 11:11:05;;;;;;;4.10;3.00;;;;;;;;;;108247;1258;35936;-37
2022/07/04 11:13:40;;;;;;;3.80;2.70;;;;;;;;;;108049;1259;35585;-37
2022/07/04 11:16:13;;;;;;;4.00;2.90;;;;;;;;;;108197;1258;36228;-36
2022/07/04 11:18:49;;;;;;;4.10;2.70;;;;;;;;;;108144;1259;34002;-38
2022/07/04 11:21:24;;;;;;;4.50;3.00;;;;;;;;;;108224;1259;35600;-37
2022/07/04 11:23:58;;;;;;;5.20;2.90;;;;;;;;;;108114;1259;35533;-41
2022/07/04 11:27:02;;;;;;;4.40;2.90;;;;;;;;;;102922;1327;607752;-43
2022/07/04 11:29:39;;;;;;;4.00;2.80;;;;;;;;;;105601;1298;42563;-40
2022/07/04 11:32:11;;;;;;;3.60;2.60;;;;;;;;;;106540;1291;46533;-39
2022/07/04 11:34:46;;;;;;;4.20;2.90;;;;;;;;;;106521;1291;36341;-39
2022/07/04 11:38:59;;;;;;;4.40;2.90;;;;;;;;;;104036;1301;584492;-38
2022/07/04 11:47:19;;;;;;;4.30;2.80;;;;;;;;;;107508;1269;42453;-41
2022/07/04 11:49:54;;;;;;;4.10;2.90;;;;;;;;;;107631;1269;43304;-42
2022/07/04 11:52:28;;;;;;;4.60;2.80;;;;;;;;;;107479;1267;333116;-43
2022/07/04 11:55:01;;;;;;;5.10;3.00;;;;;;;;;;107750;1274;35512;-38
2022/07/04 11:57:40;;;;;;;4.80;2.90;;;;;;;;;;108388;1256;35118;-37
2022/07/04 12:00:26;;;;;;;5.30;2.70;;;;;;;;;;108511;1256;34126;-42
2022/07/04 12:03:08;;;;;;;4.90;3.10;;;;;;;;;;108424;1264;33954;-39
2022/07/04 12:05:41;;;;;;;5.00;3.30;;;;;;;;;;108470;1256;34117;-43
2022/07/04 12:08:14;;;;;;;5.60;3.10;;;;;;;;;;108473;1256;35535;-38
2022/07/04 12:10:50;;;;;;;4.20;2.70;;;;;;;;;;108439;1261;35280;-42
2022/07/04 12:13:24;;;;;;;4.70;2.90;;;;;;;;;;108466;1256;35487;-41
2022/07/04 12:16:01;;;;;;;4.50;2.80;;;;;;;;;;108454;1256;34732;-40
2022/07/04 12:18:36;;;;;;;4.50;3.00;;;;;;;;;;108467;1264;33550;-37
2022/07/04 12:21:22;;;;;;;5.00;3.20;;;;;;;;;;108486;1263;33179;-37
2022/07/04 12:23:57;;;;;;;4.40;2.80;;;;;;;;;;108454;1263;35874;-40
2022/07/04 12:26:29;;;;;;;4.60;2.80;;;;;;;;;;108487;1263;34048;-36
2022/07/04 12:29:02;;;;;;;4.80;3.10;;;;;;;;;;108492;1264;35580;-37
2022/07/04 12:31:44;;;;;;;4.80;2.90;;;;;;;;;;108493;1265;35171;-39
2022/07/04 12:34:20;;;;;;;4.00;2.80;;;;;;;;;;108499;1256;35442;-37
2022/07/04 12:36:55;;;;;;;4.40;2.50;;;;;;;;;;107064;1256;36446;-37
2022/07/04 12:39:39;;;;;;;5.00;3.00;;;;;;;;;;108440;1256;41906;-37
2022/07/04 12:42:15;;;;;;;4.80;2.80;;;;;;;;;;108417;1264;42325;-38
2022/07/04 12:44:51;;;;;;;4.40;2.80;;;;;;;;;;108367;1256;39224;-37
2022/07/04 12:47:23;;;;;;;5.20;3.00;;;;;;;;;;108211;1264;36224;-39
2022/07/04 12:49:56;;;;;;;4.40;3.10;;;;;;;;;;108420;1256;36170;-37
2022/07/04 12:52:30;;;;;;;4.50;2.60;;;;;;;;;;108416;1257;44871;-40
2022/07/04 12:55:15;;;;;;;4.90;2.90;;;;;;;;;;108428;1256;33588;-38
2022/07/04 12:57:47;;;;;;;4.30;2.60;;;;;;;;;;108310;1259;34256;-39
2022/07/04 13:00:21;;;;;;;4.90;3.20;;;;;;;;;;108381;1264;38201;-37
2022/07/04 13:02:57;;;;;;;4.20;3.00;;;;;;;;;;108406;1259;35685;-40
2022/07/04 13:05:30;;;;;;;4.20;2.80;;;;;;;;;;108438;1255;37919;-39
2022/07/04 13:08:04;;;;;;;4.40;2.90;;;;;;;;;;108504;1256;35884;-39
2022/07/04 13:10:38;;;;;;;4.10;2.80;;;;;;;;;;108387;1257;75228;-38
2022/07/04 13:13:11;;;;;;;4.10;2.80;;;;;;;;;;108444;1257;34206;-39
2022/07/04 13:15:44;;;;;;;;;;;;;;;;;;108433;1265;81036;-38
2022/07/04 13:18:16;;;;;;;3.60;2.40;;;;;;;;;;108436;1256;35248;-38
2022/07/04 13:20:49;;;;;;;4.70;2.80;;;;;;;;;;108428;1256;35194;-39
2022/07/04 13:23:26;;;;;;;5.20;3.20;;;;;;;;;;108357;1256;36201;-40
2022/07/04 13:25:59;;;;;;;4.30;2.80;;;;;;;;;;108773;1263;34788;-39
2022/07/04 13:28:31;;;;;;;4.90;2.80;;;;;;;;;;108494;1256;35159;-39
2022/07/04 13:31:06;;;;;;;4.20;3.00;;;;;;;;;;108430;1256;33384;-42
2022/07/04 13:33:40;;;;;;;5.10;2.80;;;;;;;;;;108501;1256;35738;-42
2022/07/04 13:36:14;;;;;;;3.90;3.00;;;;;;;;;;108474;1260;34852;-43
2022/07/04 13:38:47;;;;;;;4.90;2.90;;;;;;;;;;108479;1264;35065;-43
2022/07/04 13:41:20;;;;;;;;;;;;;;;;;;108419;1264;33921;-42
2022/07/04 13:43:56;;;;;;;4.30;2.90;;;;;;;;;;108444;1256;35002;-40
2022/07/04 13:46:28;;;;;;;4.30;3.00;;;;;;;;;;108425;1256;34725;-42
2022/07/04 13:49:01;;;;;;;4.30;3.10;;;;;;;;;;108497;1264;33818;-40
2022/07/04 13:51:33;;;;;;;4.20;3.20;;;;;;;;;;108462;1264;33616;-41
2022/07/04 13:54:06;;;;;;;;;;;;;;;;;;108497;1264;35103;-41
2022/07/04 13:56:39;;;;;;;4.90;3.00;;;;;;;;;;108482;1256;33766;-41
2022/07/04 13:59:14;;;;;;;4.80;3.10;;;;;;;;;;108498;1256;35655;-40
2022/07/04 14:01:48;;;;;;;4.80;3.20;;;;;;;;;;108480;1256;34206;-41
2022/07/04 14:04:20;;;;;;;4.50;3.30;;;;;;;;;;108498;1256;33910;-40
2022/07/04 14:06:53;;;;;;;4.30;3.30;;;;;;;;;;108475;1264;33589;-40
2022/07/04 14:09:25;;;;;;;4.50;3.40;;;;;;;;;;108454;1256;33450;-40
2022/07/04 14:11:57;;;;;;;4.80;3.60;;;;;;;;;;108449;1256;34565;-40
2022/07/04 14:14:30;;;;;;;4.00;3.10;;;;;;;;;;108491;1257;35474;-40
2022/07/04 14:17:02;;;;;;;3.90;3.30;;;;;;;;;;108463;1263;35048;-40
2022/07/04 14:19:35;;;;;;;5.00;3.60;;;;;;;;;;108494;1256;35124;-41
2022/07/04 14:22:07;;;;;;;4.90;3.50;;;;;;;;;;108510;1256;34253;-41
2022/07/04 14:24:40;;;;;;;4.70;3.70;;;;;;;;;;108450;1256;35499;-40